createdAt,value
2017-12-10T00:01:06.800Z,99855.84
2017-12-10T00:03:34.308Z,99857.13
2017-12-10T00:06:01.848Z,99851.23
2017-12-10T00:08:29.429Z,99858.05
2017-12-10T00:10:56.974Z,99853.69
2017-12-10T00:13:24.507Z,99843.28
2017-12-10T00:15:52.060Z,99841.80
2017-12-10T00:18:19.648Z,99834.18
2017-12-10T00:20:47.193Z,99827.53
2017-12-10T00:23:14.794Z,99818.37
2017-12-10T00:25:42.332Z,99807.14
2017-12-10T00:28:09.876Z,99801.66
2017-12-10T00:30:37.442Z,99792.82
2017-12-10T00:33:05.266Z,99785.42
2017-12-10T00:35:32.856Z,99777.63
2017-12-10T00:38:00.397Z,99778.45
2017-12-10T00:40:27.920Z,99761.36
2017-12-10T00:42:55.489Z,99764.48
2017-12-10T00:45:23.024Z,99755.36
2017-12-10T00:47:50.572Z,99750.14
2017-12-10T00:50:18.118Z,99748.38
2017-12-10T00:52:45.679Z,99742.55
2017-12-10T00:55:13.236Z,99742.64
2017-12-10T00:57:40.843Z,99743.95
2017-12-10T01:00:08.409Z,99742.30
2017-12-10T01:02:35.953Z,99739.39
2017-12-10T01:05:03.539Z,99736.50
2017-12-10T01:07:31.064Z,99733.91
2017-12-10T01:09:58.663Z,99730.25
2017-12-10T01:12:26.197Z,99724.03
2017-12-10T01:14:53.737Z,99724.16
2017-12-10T01:17:21.335Z,99721.34
2017-12-10T01:19:48.877Z,99714.97
2017-12-10T01:22:16.446Z,99709.28
2017-12-10T01:24:44.030Z,99700.97
2017-12-10T01:27:11.591Z,99710.98
2017-12-10T01:29:39.150Z,99705.17
2017-12-10T01:32:06.718Z,99693.49
2017-12-10T01:34:34.308Z,99701.32
2017-12-10T01:37:01.863Z,99693.80
2017-12-10T01:39:29.405Z,99684.69
2017-12-10T01:41:57.024Z,99680.27
2017-12-10T01:44:24.568Z,99688.22
2017-12-10T01:46:52.114Z,99684.80
2017-12-10T01:49:19.710Z,99682.08
2017-12-10T01:51:47.246Z,99680.00
2017-12-10T01:54:14.794Z,99668.95
2017-12-10T01:56:42.425Z,99660.04
2017-12-10T01:59:09.964Z,99652.78
2017-12-10T02:01:37.506Z,99652.34
2017-12-10T02:04:05.078Z,99653.81
2017-12-10T02:06:32.670Z,99653.85
2017-12-10T02:09:00.249Z,99640.70
2017-12-10T02:11:27.802Z,99640.42
2017-12-10T02:13:55.417Z,99634.83
2017-12-10T02:16:22.974Z,99631.40
2017-12-10T02:18:50.547Z,99627.26
2017-12-10T02:21:18.165Z,99629.18
2017-12-10T02:23:45.720Z,99627.83
2017-12-10T02:26:13.334Z,99612.96
2017-12-10T02:28:40.920Z,99609.80
2017-12-10T02:31:08.521Z,99604.94
2017-12-10T02:33:36.092Z,99592.86
2017-12-10T02:36:03.781Z,99589.48
2017-12-10T02:38:31.366Z,99576.39
2017-12-10T02:40:58.924Z,99568.96
2017-12-10T02:43:26.541Z,99554.08
2017-12-10T02:45:54.123Z,99550.03
2017-12-10T02:48:21.745Z,99548.88
2017-12-10T02:50:49.351Z,99538.05
2017-12-10T02:53:17.866Z,99539.12
2017-12-10T02:55:45.448Z,99527.45
2017-12-10T02:58:13.034Z,99522.64
2017-12-10T03:00:40.573Z,99515.50
2017-12-10T03:03:08.190Z,99512.13
2017-12-10T03:05:35.758Z,99506.09
2017-12-10T03:08:03.312Z,99509.59
2017-12-10T03:10:30.949Z,99505.59
2017-12-10T03:12:58.493Z,99489.26
2017-12-10T03:15:26.057Z,99491.97
2017-12-10T03:17:53.689Z,99487.25
2017-12-10T03:20:21.252Z,99485.51
2017-12-10T03:22:48.812Z,99483.52
2017-12-10T03:25:16.468Z,99479.12
2017-12-10T03:27:43.975Z,99478.88
2017-12-10T03:30:11.545Z,99467.53
2017-12-10T03:32:39.153Z,99470.00
2017-12-10T03:35:06.720Z,99464.26
2017-12-10T03:37:34.298Z,99459.72
2017-12-10T03:40:01.878Z,99453.41
2017-12-10T03:42:29.444Z,99447.02
2017-12-10T03:44:56.997Z,99435.19
2017-12-10T03:47:24.593Z,99434.76
2017-12-10T03:49:52.142Z,99434.20
2017-12-10T03:52:19.722Z,99430.28
2017-12-10T03:54:47.302Z,99423.46
2017-12-10T03:57:14.894Z,99423.50
2017-12-10T03:59:42.432Z,99416.50
2017-12-10T04:02:09.968Z,99411.22
2017-12-10T04:04:37.557Z,99410.69
2017-12-10T04:07:05.102Z,99401.86
2017-12-10T04:09:32.629Z,99395.19
2017-12-10T04:12:00.247Z,99392.39
2017-12-10T04:14:27.790Z,99389.34
2017-12-10T04:16:55.350Z,99380.73
2017-12-10T04:19:22.936Z,99380.22
2017-12-10T04:21:50.476Z,99373.73
2017-12-10T04:24:18.032Z,99368.28
2017-12-10T04:26:45.578Z,99366.81
2017-12-10T04:29:13.125Z,99362.23
2017-12-10T04:31:40.719Z,99351.01
2017-12-10T04:34:08.264Z,99349.16
2017-12-10T04:36:35.834Z,99340.83
2017-12-10T04:39:03.499Z,99333.00
2017-12-10T04:41:31.054Z,99326.38
2017-12-10T04:43:58.604Z,99326.69
2017-12-10T04:46:26.188Z,99314.06
2017-12-10T04:48:53.781Z,99312.00
2017-12-10T04:51:21.331Z,99304.44
2017-12-10T04:53:48.888Z,99301.41
2017-12-10T04:56:16.493Z,99289.79
2017-12-10T04:58:44.041Z,99283.28
2017-12-10T05:01:11.766Z,99276.75
2017-12-10T05:03:39.388Z,99260.81
2017-12-10T05:06:06.942Z,99250.38
2017-12-10T05:08:34.498Z,99244.00
2017-12-10T05:11:02.069Z,99228.73
2017-12-10T05:13:29.680Z,99217.53
2017-12-10T05:15:57.207Z,99215.17
2017-12-10T05:18:24.789Z,99216.57
2017-12-10T05:20:52.401Z,99209.66
2017-12-10T05:23:19.954Z,99197.13
2017-12-10T05:25:47.485Z,99190.23
2017-12-10T05:28:15.069Z,99184.11
2017-12-10T05:30:42.598Z,99179.67
2017-12-10T05:33:10.134Z,99167.28
2017-12-10T05:35:37.762Z,99157.38
2017-12-10T05:38:05.324Z,99153.19
2017-12-10T05:40:32.873Z,99143.66
2017-12-10T05:43:00.463Z,99135.45
2017-12-10T05:45:28.014Z,99120.17
2017-12-10T05:47:55.617Z,99117.97
2017-12-10T05:50:23.158Z,99100.09
2017-12-10T05:52:50.693Z,99089.41
2017-12-10T05:55:18.298Z,99084.05
2017-12-10T05:57:45.846Z,99072.33
2017-12-10T06:00:15.296Z,99067.23
2017-12-10T06:02:42.880Z,99073.36
2017-12-10T06:05:10.411Z,99054.04
2017-12-10T06:07:39.553Z,99053.80
2017-12-10T06:10:07.130Z,99045.59
2017-12-10T06:12:34.682Z,99035.28
2017-12-10T06:15:02.260Z,99027.83
2017-12-10T06:17:29.801Z,99017.30
2017-12-10T06:19:57.337Z,99011.83
2017-12-10T06:22:24.914Z,99012.73
2017-12-10T06:24:52.468Z,98994.33
2017-12-10T06:27:19.996Z,98994.59
2017-12-10T06:29:47.586Z,98993.67
2017-12-10T06:32:15.121Z,98989.37
2017-12-10T06:34:42.661Z,98989.39
2017-12-10T06:37:10.222Z,98975.70
2017-12-10T06:39:37.866Z,98963.72
2017-12-10T06:42:05.410Z,98956.94
2017-12-10T06:44:32.954Z,98950.28
2017-12-10T06:47:00.542Z,98948.08
2017-12-10T06:49:28.082Z,98932.31
2017-12-10T06:51:55.629Z,98934.41
2017-12-10T06:54:23.220Z,98926.44
2017-12-10T06:56:50.751Z,98918.35
2017-12-10T06:59:18.284Z,98917.45
2017-12-10T07:01:45.880Z,98905.30
2017-12-10T07:04:13.420Z,98897.52
2017-12-10T07:06:40.982Z,98887.23
2017-12-10T07:09:08.542Z,98882.67
2017-12-10T07:11:36.150Z,98880.70
2017-12-10T07:14:03.866Z,98876.39
2017-12-10T07:16:31.402Z,98864.59
2017-12-10T07:18:58.993Z,98863.77
2017-12-10T07:21:26.549Z,98857.42
2017-12-10T07:23:54.095Z,98838.60
2017-12-10T07:26:21.735Z,98832.88
2017-12-10T07:28:49.268Z,98824.25
2017-12-10T07:31:16.779Z,98819.53
2017-12-10T07:33:44.337Z,98810.71
2017-12-10T07:36:11.886Z,98786.12
2017-12-10T07:38:39.468Z,98774.28
2017-12-10T07:41:07.003Z,98774.00
2017-12-10T07:43:34.556Z,98761.49
2017-12-10T07:46:02.136Z,98755.70
2017-12-10T07:48:29.724Z,98743.92
2017-12-10T07:50:57.270Z,98739.38
2017-12-10T07:53:24.816Z,98730.92
2017-12-10T07:55:52.401Z,98718.93
2017-12-10T07:58:19.993Z,98708.29
2017-12-10T08:00:47.605Z,98714.66
2017-12-10T08:03:15.156Z,98709.03
2017-12-10T08:05:42.768Z,98705.64
2017-12-10T08:08:10.336Z,98695.88
2017-12-10T08:10:37.869Z,98702.41
2017-12-10T08:13:05.816Z,98685.52
2017-12-10T08:15:33.333Z,98674.59
2017-12-10T08:18:00.859Z,98671.45
2017-12-10T08:20:28.427Z,98665.17
2017-12-10T08:22:56.024Z,98659.23
2017-12-10T08:25:23.552Z,98650.58
2017-12-10T08:27:51.087Z,98647.38
2017-12-10T08:30:18.649Z,98636.52
2017-12-10T08:32:46.228Z,98630.24
2017-12-10T08:35:13.756Z,98615.89
2017-12-10T08:37:41.275Z,98602.55
2017-12-10T08:40:08.866Z,98592.41
2017-12-10T08:42:36.435Z,98580.24
2017-12-10T08:45:03.960Z,98568.69
2017-12-10T08:47:31.528Z,98553.52
2017-12-10T08:49:59.068Z,98542.03
2017-12-10T08:52:26.662Z,98534.10
2017-12-10T08:54:54.195Z,98519.31
2017-12-10T08:57:21.755Z,98505.95
2017-12-10T08:59:49.361Z,98490.28
2017-12-10T09:02:16.901Z,98486.14
2017-12-10T09:04:44.465Z,98479.48
2017-12-10T09:07:12.071Z,98472.57
2017-12-10T09:09:39.596Z,98454.92
2017-12-10T09:12:07.211Z,98436.73
2017-12-10T09:14:34.816Z,98418.47
2017-12-10T09:17:02.345Z,98411.97
2017-12-10T09:19:29.894Z,98405.23
2017-12-10T09:21:57.447Z,98396.19
2017-12-10T09:24:24.984Z,98379.77
2017-12-10T09:26:52.591Z,98374.22
2017-12-10T09:29:20.128Z,98368.08
2017-12-10T09:31:47.674Z,98359.82
2017-12-10T09:34:15.263Z,98352.58
2017-12-10T09:36:42.800Z,98341.09
2017-12-10T09:39:10.328Z,98321.31
2017-12-10T09:41:37.896Z,98309.53
2017-12-10T09:44:05.438Z,98310.70
2017-12-10T09:46:33.141Z,98299.72
2017-12-10T09:49:00.689Z,98290.75
2017-12-10T09:51:28.226Z,98282.70
2017-12-10T09:53:55.804Z,98282.77
2017-12-10T09:56:23.345Z,98266.03
2017-12-10T09:58:50.884Z,98259.45
2017-12-10T10:01:18.464Z,98249.76
2017-12-10T10:03:45.995Z,98245.14
2017-12-10T10:06:13.603Z,98230.41
2017-12-10T10:08:41.152Z,98229.33
2017-12-10T10:11:08.680Z,98212.22
2017-12-10T10:13:36.246Z,98205.30
2017-12-10T10:16:03.801Z,98196.63
2017-12-10T10:18:31.358Z,98182.37
2017-12-10T10:20:58.900Z,98174.59
2017-12-10T10:23:26.489Z,98154.58
2017-12-10T10:25:54.043Z,98144.14
2017-12-10T10:28:21.577Z,98126.80
2017-12-10T10:30:49.175Z,98109.86
2017-12-10T10:33:16.715Z,98098.66
2017-12-10T10:35:44.249Z,98085.19
2017-12-10T10:38:11.894Z,98065.48
2017-12-10T10:40:39.433Z,98059.53
2017-12-10T10:43:06.979Z,98045.55
2017-12-10T10:45:34.536Z,98033.13
2017-12-10T10:48:02.063Z,98013.23
2017-12-10T10:50:29.633Z,97996.71
2017-12-10T10:52:57.173Z,97983.82
2017-12-10T10:55:24.676Z,97963.73
2017-12-10T10:57:52.262Z,97944.69
2017-12-10T11:00:19.809Z,97935.30
2017-12-10T11:02:47.348Z,97914.07
2017-12-10T11:05:14.925Z,97913.16
2017-12-10T11:07:42.449Z,97909.84
2017-12-10T11:10:09.980Z,97894.95
2017-12-10T11:12:37.618Z,97887.41
2017-12-10T11:15:05.153Z,97876.47
2017-12-10T11:17:32.741Z,97862.77
2017-12-10T11:20:00.302Z,97845.63
2017-12-10T11:22:27.834Z,97841.97
2017-12-10T11:24:55.384Z,97841.59
2017-12-10T11:27:22.931Z,97827.31
2017-12-10T11:29:50.488Z,97824.94
2017-12-10T11:32:18.020Z,97814.81
2017-12-10T11:34:45.600Z,97809.12
2017-12-10T11:37:13.151Z,97798.58
2017-12-10T11:39:40.676Z,97794.20
2017-12-10T11:42:08.261Z,97784.72
2017-12-10T11:44:35.809Z,97774.94
2017-12-10T11:47:03.344Z,97753.63
2017-12-10T11:49:30.916Z,97741.89
2017-12-10T11:51:58.498Z,97726.44
2017-12-10T11:54:26.033Z,97724.81
2017-12-10T11:56:53.551Z,97708.50
2017-12-10T11:59:21.123Z,97699.84
2017-12-10T12:01:48.700Z,97695.98
2017-12-10T12:04:16.250Z,97683.92
2017-12-10T12:06:43.818Z,97676.58
2017-12-10T12:09:11.371Z,97670.25
2017-12-10T12:11:38.969Z,97669.04
2017-12-10T12:14:06.505Z,97665.59
2017-12-10T12:16:34.110Z,97652.08
2017-12-10T12:19:01.641Z,97638.53
2017-12-10T12:21:29.159Z,97635.31
2017-12-10T12:23:56.735Z,97623.77
2017-12-10T12:26:24.295Z,97629.95
2017-12-10T12:28:51.820Z,97626.22
2017-12-10T12:31:19.456Z,97621.54
2017-12-10T12:33:46.997Z,97607.10
2017-12-10T12:36:14.564Z,97606.30
2017-12-10T12:38:42.112Z,97598.28
2017-12-10T12:41:09.708Z,97584.09
2017-12-10T12:43:37.246Z,97581.23
2017-12-10T12:46:04.798Z,97571.02
2017-12-10T12:48:32.380Z,97567.55
2017-12-10T12:50:59.951Z,97549.89
2017-12-10T12:53:27.593Z,97545.98
2017-12-10T12:55:55.136Z,97531.93
2017-12-10T12:58:22.736Z,97520.20
2017-12-10T13:00:50.735Z,97511.44
2017-12-10T13:03:21.836Z,97497.77
2017-12-10T13:05:49.589Z,97486.25
2017-12-10T13:08:17.161Z,97460.80
2017-12-10T13:10:44.813Z,97456.70
2017-12-10T13:13:12.356Z,97446.45
2017-12-10T13:15:39.880Z,97435.40
2017-12-10T13:18:07.441Z,97424.31
2017-12-10T13:20:34.981Z,97423.36
2017-12-10T13:23:02.578Z,97413.45
2017-12-10T13:25:30.123Z,97398.77
2017-12-10T13:27:57.667Z,97394.14
2017-12-10T13:30:25.225Z,97369.22
2017-12-10T13:32:52.817Z,97368.14
2017-12-10T13:35:20.365Z,97347.17
2017-12-10T13:37:47.918Z,97342.13
2017-12-10T13:40:15.489Z,97329.31
2017-12-10T13:42:43.034Z,97329.23
2017-12-10T13:45:10.626Z,97315.23
2017-12-10T13:47:38.164Z,97305.55
2017-12-10T13:50:05.702Z,97297.74
2017-12-10T13:52:33.282Z,97293.61
2017-12-10T13:55:00.857Z,97276.73
2017-12-10T13:57:28.456Z,97266.03
2017-12-10T13:59:55.994Z,97256.00
2017-12-10T14:02:23.536Z,97237.20
2017-12-10T14:04:51.160Z,97244.95
2017-12-10T14:07:18.710Z,97234.69
2017-12-10T14:09:46.253Z,97225.88
2017-12-10T14:12:13.810Z,97214.61
2017-12-10T14:14:41.362Z,97209.92
2017-12-10T14:17:08.950Z,97203.73
2017-12-10T14:19:36.496Z,97201.41
2017-12-10T14:22:04.034Z,97198.82
2017-12-10T14:24:31.657Z,97186.63
2017-12-10T14:26:59.203Z,97184.47
2017-12-10T14:29:26.733Z,97177.36
2017-12-10T14:31:54.329Z,97177.83
2017-12-10T14:34:21.861Z,97164.02
2017-12-10T14:36:49.397Z,97159.44
2017-12-10T14:39:16.948Z,97150.38
2017-12-10T14:41:44.546Z,97159.73
2017-12-10T14:44:12.068Z,97138.38
2017-12-10T14:46:39.606Z,97137.89
2017-12-10T14:49:07.195Z,97130.55
2017-12-10T14:51:34.751Z,97114.77
2017-12-10T14:54:02.334Z,97112.37
2017-12-10T14:56:29.897Z,97109.48
2017-12-10T14:58:57.448Z,97102.58
2017-12-10T15:01:25.024Z,97101.34
2017-12-10T15:03:52.580Z,97088.48
2017-12-10T15:06:20.115Z,97081.14
2017-12-10T15:08:47.709Z,97065.74
2017-12-10T15:11:15.253Z,97057.01
2017-12-10T15:13:42.801Z,97052.95
2017-12-10T15:16:10.364Z,97051.97
2017-12-10T15:18:37.969Z,97041.86
2017-12-10T15:21:05.516Z,97035.73
2017-12-10T15:23:33.073Z,97031.14
2017-12-10T15:26:00.732Z,97027.45
2017-12-10T15:28:28.286Z,97014.28
2017-12-10T15:30:55.839Z,97001.80
2017-12-10T15:33:23.457Z,97010.38
2017-12-10T15:35:51.001Z,96998.82
2017-12-10T15:38:18.536Z,96984.28
2017-12-10T15:40:46.142Z,96971.97
2017-12-10T15:43:13.681Z,96970.51
2017-12-10T15:45:41.217Z,96966.83
2017-12-10T15:48:08.837Z,96970.66
2017-12-10T15:50:36.390Z,96957.17
2017-12-10T15:53:03.920Z,96948.16
2017-12-10T15:55:31.530Z,96950.59
2017-12-10T15:57:59.065Z,96947.91
2017-12-10T16:00:26.621Z,96942.80
2017-12-10T16:02:54.196Z,96940.62
2017-12-10T16:05:21.749Z,96927.63
2017-12-10T16:07:49.289Z,96919.35
2017-12-10T16:10:16.875Z,96922.51
2017-12-10T16:12:44.406Z,96915.69
2017-12-10T16:15:12.002Z,96905.84
2017-12-10T16:17:39.614Z,96904.02
2017-12-10T16:20:07.156Z,96899.06
2017-12-10T16:22:34.690Z,96892.64
2017-12-10T16:25:02.280Z,96890.98
2017-12-10T16:27:29.834Z,96876.06
2017-12-10T16:29:57.390Z,96870.70
2017-12-10T16:32:24.983Z,96863.45
2017-12-10T16:34:52.508Z,96855.13
2017-12-10T16:37:20.049Z,96850.66
2017-12-10T16:39:47.657Z,96841.86
2017-12-10T16:42:15.207Z,96834.59
2017-12-10T16:44:42.761Z,96826.48
2017-12-10T16:47:10.321Z,96817.16
2017-12-10T16:49:37.855Z,96818.27
2017-12-10T16:52:05.420Z,96808.03
2017-12-10T16:54:33.028Z,96802.98
2017-12-10T16:57:00.606Z,96803.03
2017-12-10T16:59:28.163Z,96791.70
2017-12-10T17:01:55.704Z,96782.67
2017-12-10T17:04:23.300Z,96778.28
2017-12-10T17:06:51.160Z,96766.38
2017-12-10T17:09:18.709Z,96762.89
2017-12-10T17:11:46.328Z,96761.73
2017-12-10T17:14:13.864Z,96756.69
2017-12-10T17:16:41.418Z,96745.95
2017-12-10T17:19:09.013Z,96745.69
2017-12-10T17:21:36.579Z,96740.36
2017-12-10T17:24:04.131Z,96735.21
2017-12-10T17:26:31.717Z,96724.14
2017-12-10T17:28:59.292Z,96719.47
2017-12-10T17:31:26.813Z,96715.00
2017-12-10T17:33:54.430Z,96716.84
2017-12-10T17:36:21.995Z,96708.47
2017-12-10T17:38:49.573Z,96704.22
2017-12-10T17:41:17.104Z,96691.73
2017-12-10T17:43:44.717Z,96684.41
2017-12-10T17:46:12.241Z,96679.66
2017-12-10T17:48:39.775Z,96683.19
2017-12-10T17:51:07.400Z,96680.91
2017-12-10T17:53:34.965Z,96680.64
2017-12-10T17:56:02.528Z,96679.28
2017-12-10T17:58:30.121Z,96662.33
2017-12-10T18:00:57.667Z,96661.02
2017-12-10T18:03:25.200Z,96664.09
2017-12-10T18:05:52.767Z,96652.75
2017-12-10T18:08:20.329Z,96663.47
2017-12-10T18:10:47.857Z,96669.73
2017-12-10T18:13:15.448Z,96671.05
2017-12-10T18:15:42.978Z,96678.00
2017-12-10T18:18:10.516Z,96682.50
2017-12-10T18:20:38.096Z,96673.20
2017-12-10T18:23:05.690Z,96673.88
2017-12-10T18:25:33.230Z,96673.39
2017-12-10T18:28:00.846Z,96673.58
2017-12-10T18:30:28.380Z,96668.20
2017-12-10T18:32:55.931Z,96657.25
2017-12-10T18:35:23.589Z,96667.84
2017-12-10T18:37:51.171Z,96665.63
2017-12-10T18:40:18.717Z,96666.55
2017-12-10T18:42:46.306Z,96661.95
2017-12-10T18:45:13.864Z,96659.95
2017-12-10T18:47:41.495Z,96656.72
2017-12-10T18:50:09.036Z,96667.47
2017-12-10T18:52:36.657Z,96661.30
2017-12-10T18:55:04.236Z,96657.34
2017-12-10T18:57:31.782Z,96665.72
2017-12-10T18:59:59.304Z,96664.88
2017-12-10T19:02:26.901Z,96658.73
2017-12-10T19:04:54.424Z,96665.55
2017-12-10T19:07:21.985Z,96662.94
2017-12-10T19:09:49.588Z,96667.52
2017-12-10T19:12:17.128Z,96669.02
2017-12-10T19:14:44.683Z,96676.23
2017-12-10T19:17:12.297Z,96670.63
2017-12-10T19:19:39.849Z,96671.83
2017-12-10T19:22:07.471Z,96669.98
2017-12-10T19:24:35.053Z,96661.63
2017-12-10T19:27:02.606Z,96669.27
2017-12-10T19:29:30.206Z,96668.16
2017-12-10T19:31:57.821Z,96673.27
2017-12-10T19:34:25.370Z,96674.67
2017-12-10T19:36:52.979Z,96674.72
2017-12-10T19:39:20.525Z,96672.77
2017-12-10T19:41:48.075Z,96678.69
2017-12-10T19:44:15.645Z,96678.16
2017-12-10T19:46:43.176Z,96680.63
2017-12-10T19:49:10.796Z,96677.00
2017-12-10T19:51:38.332Z,96679.30
2017-12-10T19:54:05.927Z,96681.05
2017-12-10T19:56:33.496Z,96677.86
2017-12-10T19:59:01.050Z,96673.67
2017-12-10T20:01:28.609Z,96668.31
2017-12-10T20:04:00.053Z,96667.45
2017-12-10T20:06:27.632Z,96670.41
2017-12-10T20:08:55.219Z,96668.38
2017-12-10T20:11:22.827Z,96669.66
2017-12-10T20:13:50.400Z,96677.73
2017-12-10T20:16:17.964Z,96672.58
2017-12-10T20:18:45.578Z,96680.02
2017-12-10T20:21:13.118Z,96674.51
2017-12-10T20:23:40.661Z,96678.77
2017-12-10T20:26:08.217Z,96678.53
2017-12-10T20:28:35.765Z,96670.41
2017-12-10T20:31:03.346Z,96667.39
2017-12-10T20:33:30.894Z,96672.89
2017-12-10T20:35:58.526Z,96674.06
2017-12-10T20:38:26.052Z,96673.13
2017-12-10T20:40:53.666Z,96677.02
2017-12-10T20:43:21.230Z,96683.89
2017-12-10T20:45:48.767Z,96683.25
2017-12-10T20:48:16.348Z,96689.98
2017-12-10T20:50:43.882Z,96691.64
2017-12-10T20:53:11.417Z,96693.67
2017-12-10T20:55:38.960Z,96695.77
2017-12-10T20:58:06.613Z,96694.22
2017-12-10T21:00:34.176Z,96693.67
2017-12-10T21:03:01.705Z,96700.37
2017-12-10T21:05:29.289Z,96703.13
2017-12-10T21:07:56.824Z,96708.74
2017-12-10T21:10:24.366Z,96715.17
2017-12-10T21:12:51.957Z,96718.69
2017-12-10T21:15:19.508Z,96726.40
2017-12-10T21:17:47.069Z,96732.47
2017-12-10T21:20:14.719Z,96732.83
2017-12-10T21:22:42.228Z,96739.42
2017-12-10T21:25:09.769Z,96744.16
2017-12-10T21:27:37.403Z,96754.29
2017-12-10T21:30:04.934Z,96760.87
2017-12-10T21:32:32.473Z,96758.42
2017-12-10T21:35:00.032Z,96763.27
2017-12-10T21:37:27.590Z,96777.42
2017-12-10T21:39:55.201Z,96784.37
2017-12-10T21:42:22.754Z,96790.42
2017-12-10T21:44:51.198Z,96790.64
2017-12-10T21:47:18.804Z,96797.83
2017-12-10T21:49:46.340Z,96802.88
2017-12-10T21:52:13.889Z,96805.13
2017-12-10T21:54:41.469Z,96815.69
2017-12-10T21:57:09.021Z,96820.26
2017-12-10T21:59:36.637Z,96826.50
2017-12-10T22:02:04.173Z,96831.78
2017-12-10T22:04:31.704Z,96852.89
2017-12-10T22:06:59.298Z,96870.45
2017-12-10T22:09:26.825Z,96890.33
2017-12-10T22:11:54.359Z,96890.38
2017-12-10T22:14:21.921Z,96924.34
2017-12-10T22:16:49.520Z,96934.40
2017-12-10T22:19:17.070Z,96946.56
2017-12-10T22:21:44.636Z,96959.69
2017-12-10T22:24:12.192Z,96985.72
2017-12-10T22:26:39.802Z,96980.28
2017-12-10T22:29:07.346Z,96990.78
2017-12-10T22:31:34.910Z,97017.90
2017-12-10T22:34:02.520Z,97019.59
2017-12-10T22:36:30.067Z,97034.84
2017-12-10T22:38:57.605Z,97043.84
2017-12-10T22:41:25.193Z,97065.81
2017-12-10T22:43:52.716Z,97070.04
2017-12-10T22:46:20.254Z,97102.28
2017-12-10T22:48:47.804Z,97127.63
2017-12-10T22:51:15.436Z,97132.52
2017-12-10T22:53:42.990Z,97171.59
2017-12-10T22:56:10.508Z,97176.36
2017-12-10T22:58:38.075Z,97186.17
2017-12-10T23:01:05.587Z,97203.09
2017-12-10T23:03:33.109Z,97231.89
2017-12-10T23:06:00.681Z,97235.02
2017-12-10T23:08:28.218Z,97242.44
2017-12-10T23:10:55.741Z,97243.06
2017-12-10T23:13:35.254Z,97267.19
2017-12-10T23:16:02.821Z,97283.72
2017-12-10T23:18:30.353Z,97296.23
2017-12-10T23:20:57.943Z,97302.02
2017-12-10T23:23:25.466Z,97321.16
2017-12-10T23:25:52.992Z,97320.56
2017-12-10T23:28:20.569Z,97329.23
2017-12-10T23:30:48.131Z,97340.50
2017-12-10T23:33:15.701Z,97358.61
2017-12-10T23:35:43.249Z,97374.62
2017-12-10T23:38:10.833Z,97379.53
2017-12-10T23:40:38.360Z,97388.95
2017-12-10T23:43:05.942Z,97406.48
2017-12-10T23:45:33.513Z,97417.45
2017-12-10T23:48:01.057Z,97431.26
2017-12-10T23:50:28.613Z,97444.97
2017-12-10T23:52:56.136Z,97455.64
2017-12-10T23:55:23.695Z,97462.23
2017-12-10T23:57:51.221Z,97479.30
